sensor_id;sensor_type;location;lat;lon;timestamp;temperature;humidity
17128;DHT22;8679;50.842;4.322;2022-07-06T00:01:23;14.80;99.90
17128;DHT22;8679;50.842;4.322;2022-07-06T00:03:49;14.80;99.90
17128;DHT22;8679;50.842;4.322;2022-07-06T00:06:15;14.80;99.90
17128;DHT22;8679;50.842;4.322;2022-07-06T00:08:43;14.80;99.90
17128;DHT22;8679;50.842;4.322;2022-07-06T00:11:09;14.70;99.90
17128;DHT22;8679;50.842;4.322;2022-07-06T00:13:34;14.70;99.90
17128;DHT22;8679;50.842;4.322;2022-07-06T00:16:00;14.80;99.90
17128;DHT22;8679;50.842;4.322;2022-07-06T00:18:26;14.80;99.90
17128;DHT22;8679;50.842;4.322;2022-07-06T00:20:52;14.80;99.90
17128;DHT22;8679;50.842;4.322;2022-07-06T00:23:18;14.70;99.90
17128;DHT22;8679;50.842;4.322;2022-07-06T00:25:44;14.70;99.90
17128;DHT22;8679;50.842;4.322;2022-07-06T00:28:10;14.60;99.90
17128;DHT22;8679;50.842;4.322;2022-07-06T00:30:36;14.60;99.90
17128;DHT22;8679;50.842;4.322;2022-07-06T00:33:02;14.60;99.90
17128;DHT22;8679;50.842;4.322;2022-07-06T00:35:28;14.50;99.90
17128;DHT22;8679;50.842;4.322;2022-07-06T00:37:53;14.50;99.90
17128;DHT22;8679;50.842;4.322;2022-07-06T00:40:19;14.50;99.90
17128;DHT22;8679;50.842;4.322;2022-07-06T00:42:47;14.40;99.90
17128;DHT22;8679;50.842;4.322;2022-07-06T00:45:14;14.40;99.90
17128;DHT22;8679;50.842;4.322;2022-07-06T00:47:42;14.40;99.90
17128;DHT22;8679;50.842;4.322;2022-07-06T00:50:09;14.40;99.90
17128;DHT22;8679;50.842;4.322;2022-07-06T00:52:52;14.50;99.90
17128;DHT22;8679;50.842;4.322;2022-07-06T00:55:20;14.50;99.90
17128;DHT22;8679;50.842;4.322;2022-07-06T00:57:46;14.50;99.90
17128;DHT22;8679;50.842;4.322;2022-07-06T01:00:14;14.50;99.90
17128;DHT22;8679;50.842;4.322;2022-07-06T01:02:41;14.50;99.90
17128;DHT22;8679;50.842;4.322;2022-07-06T01:05:09;14.50;99.90
17128;DHT22;8679;50.842;4.322;2022-07-06T01:07:36;14.40;99.90
17128;DHT22;8679;50.842;4.322;2022-07-06T01:10:05;14.40;99.90
17128;DHT22;8679;50.842;4.322;2022-07-06T01:12:31;14.30;99.90
17128;DHT22;8679;50.842;4.322;2022-07-06T01:14:57;14.20;99.90
17128;DHT22;8679;50.842;4.322;2022-07-06T01:17:23;14.20;99.90
17128;DHT22;8679;50.842;4.322;2022-07-06T01:19:50;14.20;99.90
17128;DHT22;8679;50.842;4.322;2022-07-06T01:22:15;14.20;99.90
17128;DHT22;8679;50.842;4.322;2022-07-06T01:24:41;14.10;99.90
17128;DHT22;8679;50.842;4.322;2022-07-06T01:27:07;14.10;99.90
17128;DHT22;8679;50.842;4.322;2022-07-06T01:29:33;14.00;99.90
17128;DHT22;8679;50.842;4.322;2022-07-06T01:31:59;14.00;99.90
17128;DHT22;8679;50.842;4.322;2022-07-06T01:34:25;13.90;99.90
17128;DHT22;8679;50.842;4.322;2022-07-06T01:36:51;13.90;99.90
17128;DHT22;8679;50.842;4.322;2022-07-06T01:39:16;13.90;99.90
17128;DHT22;8679;50.842;4.322;2022-07-06T01:41:42;13.90;99.90
17128;DHT22;8679;50.842;4.322;2022-07-06T01:44:08;13.80;99.90
17128;DHT22;8679;50.842;4.322;2022-07-06T01:46:34;13.80;99.90
17128;DHT22;8679;50.842;4.322;2022-07-06T01:48:59;13.70;99.90
17128;DHT22;8679;50.842;4.322;2022-07-06T01:51:25;13.60;99.90
17128;DHT22;8679;50.842;4.322;2022-07-06T01:53:51;13.60;99.90
17128;DHT22;8679;50.842;4.322;2022-07-06T01:56:18;13.50;99.90
17128;DHT22;8679;50.842;4.322;2022-07-06T01:58:47;13.50;99.90
17128;DHT22;8679;50.842;4.322;2022-07-06T02:01:16;13.50;99.90
17128;DHT22;8679;50.842;4.322;2022-07-06T02:03:42;13.50;99.90
17128;DHT22;8679;50.842;4.322;2022-07-06T02:06:08;13.40;99.90
17128;DHT22;8679;50.842;4.322;2022-07-06T02:08:34;13.40;99.90
17128;DHT22;8679;50.842;4.322;2022-07-06T02:11:02;13.30;99.90
17128;DHT22;8679;50.842;4.322;2022-07-06T02:13:27;13.30;99.90
17128;DHT22;8679;50.842;4.322;2022-07-06T02:15:53;13.30;99.90
17128;DHT22;8679;50.842;4.322;2022-07-06T02:18:19;13.30;99.90
17128;DHT22;8679;50.842;4.322;2022-07-06T02:20:45;13.30;99.90
17128;DHT22;8679;50.842;4.322;2022-07-06T02:23:10;13.20;99.90
17128;DHT22;8679;50.842;4.322;2022-07-06T02:25:36;13.20;99.90
17128;DHT22;8679;50.842;4.322;2022-07-06T02:28:02;13.20;99.90
17128;DHT22;8679;50.842;4.322;2022-07-06T02:30:28;13.20;99.90
17128;DHT22;8679;50.842;4.322;2022-07-06T02:32:53;13.20;99.90
17128;DHT22;8679;50.842;4.322;2022-07-06T02:35:19;13.20;99.90
17128;DHT22;8679;50.842;4.322;2022-07-06T02:37:45;13.30;99.90
17128;DHT22;8679;50.842;4.322;2022-07-06T02:40:10;13.20;99.90
17128;DHT22;8679;50.842;4.322;2022-07-06T02:42:36;13.20;99.90
17128;DHT22;8679;50.842;4.322;2022-07-06T02:45:02;13.20;99.90
17128;DHT22;8679;50.842;4.322;2022-07-06T02:47:28;13.10;99.90
17128;DHT22;8679;50.842;4.322;2022-07-06T02:49:54;13.00;99.90
17128;DHT22;8679;50.842;4.322;2022-07-06T02:52:20;13.00;99.90
17128;DHT22;8679;50.842;4.322;2022-07-06T02:54:46;13.00;99.90
17128;DHT22;8679;50.842;4.322;2022-07-06T02:57:11;13.00;99.90
17128;DHT22;8679;50.842;4.322;2022-07-06T02:59:37;12.90;99.90
17128;DHT22;8679;50.842;4.322;2022-07-06T03:02:07;12.90;99.90
17128;DHT22;8679;50.842;4.322;2022-07-06T03:04:33;12.90;99.90
17128;DHT22;8679;50.842;4.322;2022-07-06T03:06:59;12.90;99.90
17128;DHT22;8679;50.842;4.322;2022-07-06T03:09:25;12.90;99.90
17128;DHT22;8679;50.842;4.322;2022-07-06T03:11:51;12.90;99.90
17128;DHT22;8679;50.842;4.322;2022-07-06T03:14:16;12.80;99.90
17128;DHT22;8679;50.842;4.322;2022-07-06T03:16:42;12.80;99.90
17128;DHT22;8679;50.842;4.322;2022-07-06T03:19:08;12.80;99.90
17128;DHT22;8679;50.842;4.322;2022-07-06T03:21:33;12.80;99.90
17128;DHT22;8679;50.842;4.322;2022-07-06T03:23:59;12.80;99.90
17128;DHT22;8679;50.842;4.322;2022-07-06T03:26:25;12.80;99.90
17128;DHT22;8679;50.842;4.322;2022-07-06T03:28:51;12.80;99.90
17128;DHT22;8679;50.842;4.322;2022-07-06T03:31:17;12.70;99.90
17128;DHT22;8679;50.842;4.322;2022-07-06T03:33:42;12.80;99.90
17128;DHT22;8679;50.842;4.322;2022-07-06T03:36:08;12.70;99.90
17128;DHT22;8679;50.842;4.322;2022-07-06T03:38:35;12.70;99.90
17128;DHT22;8679;50.842;4.322;2022-07-06T03:41:01;12.70;99.90
17128;DHT22;8679;50.842;4.322;2022-07-06T03:43:26;12.70;99.90
17128;DHT22;8679;50.842;4.322;2022-07-06T03:45:52;12.70;99.90
17128;DHT22;8679;50.842;4.322;2022-07-06T03:48:18;12.70;99.90
17128;DHT22;8679;50.842;4.322;2022-07-06T03:50:43;12.70;99.90
17128;DHT22;8679;50.842;4.322;2022-07-06T03:53:09;12.80;99.90
17128;DHT22;8679;50.842;4.322;2022-07-06T03:55:35;12.80;99.90
17128;DHT22;8679;50.842;4.322;2022-07-06T03:58:00;12.80;99.90
17128;DHT22;8679;50.842;4.322;2022-07-06T04:00:26;12.80;99.90
17128;DHT22;8679;50.842;4.322;2022-07-06T04:02:52;12.80;99.90
17128;DHT22;8679;50.842;4.322;2022-07-06T04:05:17;12.80;99.90
17128;DHT22;8679;50.842;4.322;2022-07-06T04:07:49;12.90;99.90
17128;DHT22;8679;50.842;4.322;2022-07-06T04:10:16;13.00;99.90
17128;DHT22;8679;50.842;4.322;2022-07-06T04:12:45;13.00;99.90
17128;DHT22;8679;50.842;4.322;2022-07-06T04:15:11;13.10;99.90
17128;DHT22;8679;50.842;4.322;2022-07-06T04:17:38;13.00;99.90
17128;DHT22;8679;50.842;4.322;2022-07-06T04:20:24;13.10;99.90
17128;DHT22;8679;50.842;4.322;2022-07-06T04:22:51;13.00;99.90
17128;DHT22;8679;50.842;4.322;2022-07-06T04:25:17;13.00;99.90
17128;DHT22;8679;50.842;4.322;2022-07-06T04:27:43;13.00;99.90
17128;DHT22;8679;50.842;4.322;2022-07-06T04:30:10;13.10;99.90
17128;DHT22;8679;50.842;4.322;2022-07-06T04:32:36;13.10;99.90
17128;DHT22;8679;50.842;4.322;2022-07-06T04:35:03;13.10;99.90
17128;DHT22;8679;50.842;4.322;2022-07-06T04:37:29;13.10;99.90
17128;DHT22;8679;50.842;4.322;2022-07-06T04:39:55;13.10;99.90
17128;DHT22;8679;50.842;4.322;2022-07-06T04:42:20;13.20;99.90
17128;DHT22;8679;50.842;4.322;2022-07-06T04:44:46;13.20;99.90
17128;DHT22;8679;50.842;4.322;2022-07-06T04:47:13;13.30;99.90
17128;DHT22;8679;50.842;4.322;2022-07-06T04:49:39;13.40;99.90
17128;DHT22;8679;50.842;4.322;2022-07-06T04:52:05;13.40;99.90
17128;DHT22;8679;50.842;4.322;2022-07-06T04:54:31;13.50;99.90
17128;DHT22;8679;50.842;4.322;2022-07-06T04:56:57;13.50;99.90
17128;DHT22;8679;50.842;4.322;2022-07-06T04:59:23;13.50;99.90
17128;DHT22;8679;50.842;4.322;2022-07-06T05:01:49;13.50;99.90
17128;DHT22;8679;50.842;4.322;2022-07-06T05:04:14;13.50;99.90
17128;DHT22;8679;50.842;4.322;2022-07-06T05:06:40;13.50;99.90
17128;DHT22;8679;50.842;4.322;2022-07-06T05:09:06;13.50;99.90
17128;DHT22;8679;50.842;4.322;2022-07-06T05:11:32;13.50;99.90
17128;DHT22;8679;50.842;4.322;2022-07-06T05:13:57;13.50;99.90
17128;DHT22;8679;50.842;4.322;2022-07-06T05:16:23;13.60;99.90
17128;DHT22;8679;50.842;4.322;2022-07-06T05:18:49;13.60;99.90
17128;DHT22;8679;50.842;4.322;2022-07-06T05:21:15;13.60;99.90
17128;DHT22;8679;50.842;4.322;2022-07-06T05:23:41;13.60;99.90
17128;DHT22;8679;50.842;4.322;2022-07-06T05:26:06;13.70;99.90
17128;DHT22;8679;50.842;4.322;2022-07-06T05:28:32;13.70;99.90
17128;DHT22;8679;50.842;4.322;2022-07-06T05:30:58;13.70;99.90
17128;DHT22;8679;50.842;4.322;2022-07-06T05:33:24;13.80;99.90
17128;DHT22;8679;50.842;4.322;2022-07-06T05:35:50;13.80;99.90
17128;DHT22;8679;50.842;4.322;2022-07-06T05:38:15;13.90;99.90
17128;DHT22;8679;50.842;4.322;2022-07-06T05:40:41;13.90;99.90
17128;DHT22;8679;50.842;4.322;2022-07-06T05:43:07;14.00;99.90
17128;DHT22;8679;50.842;4.322;2022-07-06T05:45:32;14.10;99.90
17128;DHT22;8679;50.842;4.322;2022-07-06T05:47:58;14.20;99.90
17128;DHT22;8679;50.842;4.322;2022-07-06T05:50:42;14.20;99.90
17128;DHT22;8679;50.842;4.322;2022-07-06T05:53:08;14.40;99.90
17128;DHT22;8679;50.842;4.322;2022-07-06T05:55:33;14.50;99.90
17128;DHT22;8679;50.842;4.322;2022-07-06T05:57:59;14.60;99.90
17128;DHT22;8679;50.842;4.322;2022-07-06T06:00:26;14.70;99.90
17128;DHT22;8679;50.842;4.322;2022-07-06T06:02:52;14.80;99.90
17128;DHT22;8679;50.842;4.322;2022-07-06T06:05:18;14.90;99.90
17128;DHT22;8679;50.842;4.322;2022-07-06T06:07:44;15.10;99.90
17128;DHT22;8679;50.842;4.322;2022-07-06T06:10:12;15.20;99.20
17128;DHT22;8679;50.842;4.322;2022-07-06T06:12:39;15.30;96.00
17128;DHT22;8679;50.842;4.322;2022-07-06T06:15:05;15.40;93.20
17128;DHT22;8679;50.842;4.322;2022-07-06T06:17:32;15.50;82.60
17128;DHT22;8679;50.842;4.322;2022-07-06T06:19:58;15.60;79.80
17128;DHT22;8679;50.842;4.322;2022-07-06T06:22:24;15.70;70.70
17128;DHT22;8679;50.842;4.322;2022-07-06T06:24:50;15.80;68.20
17128;DHT22;8679;50.842;4.322;2022-07-06T06:27:16;16.00;53.30
17128;DHT22;8679;50.842;4.322;2022-07-06T06:29:42;16.10;47.80
17128;DHT22;8679;50.842;4.322;2022-07-06T06:32:11;16.20;53.90
17128;DHT22;8679;50.842;4.322;2022-07-06T06:34:37;16.30;54.90
17128;DHT22;8679;50.842;4.322;2022-07-06T06:37:03;16.50;31.90
17128;DHT22;8679;50.842;4.322;2022-07-06T06:39:29;16.60;31.90
17128;DHT22;8679;50.842;4.322;2022-07-06T06:41:55;16.70;27.80
17128;DHT22;8679;50.842;4.322;2022-07-06T06:44:20;16.80;20.50
17128;DHT22;8679;50.842;4.322;2022-07-06T06:46:49;17.00;6.00
17128;DHT22;8679;50.842;4.322;2022-07-06T06:49:14;17.10;1.00
17128;DHT22;8679;50.842;4.322;2022-07-06T06:51:40;17.10;1.00
17128;DHT22;8679;50.842;4.322;2022-07-06T06:54:06;17.20;1.00
17128;DHT22;8679;50.842;4.322;2022-07-06T06:56:32;17.30;1.00
17128;DHT22;8679;50.842;4.322;2022-07-06T06:58:57;17.40;1.00
17128;DHT22;8679;50.842;4.322;2022-07-06T07:01:23;17.40;1.00
17128;DHT22;8679;50.842;4.322;2022-07-06T07:03:50;17.50;1.00
17128;DHT22;8679;50.842;4.322;2022-07-06T07:06:16;17.50;1.00
17128;DHT22;8679;50.842;4.322;2022-07-06T07:08:42;17.50;1.00
17128;DHT22;8679;50.842;4.322;2022-07-06T07:11:07;17.40;1.00
17128;DHT22;8679;50.842;4.322;2022-07-06T07:13:33;17.60;1.00
17128;DHT22;8679;50.842;4.322;2022-07-06T07:15:59;17.60;1.00
17128;DHT22;8679;50.842;4.322;2022-07-06T07:18:24;17.60;1.00
17128;DHT22;8679;50.842;4.322;2022-07-06T07:20:50;17.70;1.00
17128;DHT22;8679;50.842;4.322;2022-07-06T07:23:16;17.70;1.00
17128;DHT22;8679;50.842;4.322;2022-07-06T07:25:41;17.80;1.00
17128;DHT22;8679;50.842;4.322;2022-07-06T07:28:07;17.80;1.00
17128;DHT22;8679;50.842;4.322;2022-07-06T07:30:33;17.90;1.00
17128;DHT22;8679;50.842;4.322;2022-07-06T07:32:58;18.00;1.00
17128;DHT22;8679;50.842;4.322;2022-07-06T07:35:26;18.00;1.00
17128;DHT22;8679;50.842;4.322;2022-07-06T07:37:52;18.00;1.00
17128;DHT22;8679;50.842;4.322;2022-07-06T07:40:17;18.20;1.00
17128;DHT22;8679;50.842;4.322;2022-07-06T07:42:43;18.20;1.00
17128;DHT22;8679;50.842;4.322;2022-07-06T07:45:10;18.20;1.00
17128;DHT22;8679;50.842;4.322;2022-07-06T07:47:36;18.20;1.00
17128;DHT22;8679;50.842;4.322;2022-07-06T07:50:02;18.20;1.00
17128;DHT22;8679;50.842;4.322;2022-07-06T07:52:28;18.30;1.00
17128;DHT22;8679;50.842;4.322;2022-07-06T07:54:53;18.30;1.00
17128;DHT22;8679;50.842;4.322;2022-07-06T07:57:19;18.30;1.00
17128;DHT22;8679;50.842;4.322;2022-07-06T07:59:45;18.40;1.00
17128;DHT22;8679;50.842;4.322;2022-07-06T08:02:10;18.40;1.00
17128;DHT22;8679;50.842;4.322;2022-07-06T08:04:36;18.20;1.00
17128;DHT22;8679;50.842;4.322;2022-07-06T08:07:02;18.10;1.00
17128;DHT22;8679;50.842;4.322;2022-07-06T08:09:27;18.20;1.00
17128;DHT22;8679;50.842;4.322;2022-07-06T08:11:53;18.30;1.00
17128;DHT22;8679;50.842;4.322;2022-07-06T08:14:18;18.40;1.00
17128;DHT22;8679;50.842;4.322;2022-07-06T08:16:44;18.40;1.00
17128;DHT22;8679;50.842;4.322;2022-07-06T08:19:10;18.40;1.00
17128;DHT22;8679;50.842;4.322;2022-07-06T08:21:39;18.40;1.00
17128;DHT22;8679;50.842;4.322;2022-07-06T08:24:05;18.40;1.00
17128;DHT22;8679;50.842;4.322;2022-07-06T08:26:31;18.50;1.00
17128;DHT22;8679;50.842;4.322;2022-07-06T08:28:56;18.50;1.00
17128;DHT22;8679;50.842;4.322;2022-07-06T08:31:22;18.60;1.00
17128;DHT22;8679;50.842;4.322;2022-07-06T08:33:47;18.70;1.00
17128;DHT22;8679;50.842;4.322;2022-07-06T08:36:14;18.80;1.00
17128;DHT22;8679;50.842;4.322;2022-07-06T08:38:39;19.00;1.00
17128;DHT22;8679;50.842;4.322;2022-07-06T08:41:06;19.20;1.00
17128;DHT22;8679;50.842;4.322;2022-07-06T08:43:33;19.30;1.00
17128;DHT22;8679;50.842;4.322;2022-07-06T08:46:00;19.30;1.00
17128;DHT22;8679;50.842;4.322;2022-07-06T08:48:27;19.30;1.00
17128;DHT22;8679;50.842;4.322;2022-07-06T08:50:56;19.40;1.00
17128;DHT22;8679;50.842;4.322;2022-07-06T08:53:22;19.50;1.00
17128;DHT22;8679;50.842;4.322;2022-07-06T08:55:48;19.50;1.00
17128;DHT22;8679;50.842;4.322;2022-07-06T08:58:14;19.50;1.00
17128;DHT22;8679;50.842;4.322;2022-07-06T09:00:41;19.60;1.00
17128;DHT22;8679;50.842;4.322;2022-07-06T09:03:09;19.90;1.00
17128;DHT22;8679;50.842;4.322;2022-07-06T09:05:37;20.00;1.00
17128;DHT22;8679;50.842;4.322;2022-07-06T09:08:03;19.90;1.00
17128;DHT22;8679;50.842;4.322;2022-07-06T09:10:28;20.00;1.00
17128;DHT22;8679;50.842;4.322;2022-07-06T09:13:05;20.10;1.00
17128;DHT22;8679;50.842;4.322;2022-07-06T09:15:31;20.40;1.00
17128;DHT22;8679;50.842;4.322;2022-07-06T09:17:57;20.50;1.00
17128;DHT22;8679;50.842;4.322;2022-07-06T09:20:23;20.50;1.00
17128;DHT22;8679;50.842;4.322;2022-07-06T09:22:49;20.40;1.00
17128;DHT22;8679;50.842;4.322;2022-07-06T09:25:15;20.40;1.00
17128;DHT22;8679;50.842;4.322;2022-07-06T09:27:43;20.50;1.00
17128;DHT22;8679;50.842;4.322;2022-07-06T09:30:11;20.80;1.00
17128;DHT22;8679;50.842;4.322;2022-07-06T09:32:48;20.90;1.00
17128;DHT22;8679;50.842;4.322;2022-07-06T09:37:48;21.20;1.00
17128;DHT22;8679;50.842;4.322;2022-07-06T09:40:24;21.20;1.00
17128;DHT22;8679;50.842;4.322;2022-07-06T09:42:50;21.30;1.00
17128;DHT22;8679;50.842;4.322;2022-07-06T09:45:20;20.90;1.00
17128;DHT22;8679;50.842;4.322;2022-07-06T09:47:47;20.80;1.00
17128;DHT22;8679;50.842;4.322;2022-07-06T09:50:15;20.60;1.00
17128;DHT22;8679;50.842;4.322;2022-07-06T09:52:41;20.80;1.00
17128;DHT22;8679;50.842;4.322;2022-07-06T09:55:14;20.90;1.00
17128;DHT22;8679;50.842;4.322;2022-07-06T09:57:52;20.50;1.00
17128;DHT22;8679;50.842;4.322;2022-07-06T10:00:19;20.70;1.00
17128;DHT22;8679;50.842;4.322;2022-07-06T10:02:46;21.00;1.00
17128;DHT22;8679;50.842;4.322;2022-07-06T10:05:15;21.40;1.00
17128;DHT22;8679;50.842;4.322;2022-07-06T10:07:41;21.50;1.00
17128;DHT22;8679;50.842;4.322;2022-07-06T10:10:08;21.40;1.00
17128;DHT22;8679;50.842;4.322;2022-07-06T10:12:34;21.30;1.00
17128;DHT22;8679;50.842;4.322;2022-07-06T10:15:00;21.30;1.00
17128;DHT22;8679;50.842;4.322;2022-07-06T10:17:26;21.40;1.00
17128;DHT22;8679;50.842;4.322;2022-07-06T10:19:53;21.60;1.00
17128;DHT22;8679;50.842;4.322;2022-07-06T10:22:21;21.40;1.00
17128;DHT22;8679;50.842;4.322;2022-07-06T10:24:47;21.50;1.00
17128;DHT22;8679;50.842;4.322;2022-07-06T10:27:14;21.30;1.00
17128;DHT22;8679;50.842;4.322;2022-07-06T10:29:40;21.20;1.00
17128;DHT22;8679;50.842;4.322;2022-07-06T10:32:07;21.30;1.00
17128;DHT22;8679;50.842;4.322;2022-07-06T10:34:33;21.30;1.00
17128;DHT22;8679;50.842;4.322;2022-07-06T10:37:02;21.40;1.00
17128;DHT22;8679;50.842;4.322;2022-07-06T10:39:33;21.50;1.00
17128;DHT22;8679;50.842;4.322;2022-07-06T10:42:40;21.60;1.00
17128;DHT22;8679;50.842;4.322;2022-07-06T10:45:06;21.60;1.00
17128;DHT22;8679;50.842;4.322;2022-07-06T10:47:32;21.50;1.00
17128;DHT22;8679;50.842;4.322;2022-07-06T10:50:02;21.60;1.00
17128;DHT22;8679;50.842;4.322;2022-07-06T10:52:58;21.60;1.00
17128;DHT22;8679;50.842;4.322;2022-07-06T10:55:35;21.50;1.00
17128;DHT22;8679;50.842;4.322;2022-07-06T10:58:01;21.50;1.00
17128;DHT22;8679;50.842;4.322;2022-07-06T11:00:51;21.80;1.00
17128;DHT22;8679;50.842;4.322;2022-07-06T11:06:01;22.60;1.00
17128;DHT22;8679;50.842;4.322;2022-07-06T11:08:46;22.90;1.00
17128;DHT22;8679;50.842;4.322;2022-07-06T11:13:51;23.70;1.00
17128;DHT22;8679;50.842;4.322;2022-07-06T11:16:17;23.70;99.90
17128;DHT22;8679;50.842;4.322;2022-07-06T11:18:48;23.30;1.00
17128;DHT22;8679;50.842;4.322;2022-07-06T11:21:16;23.50;1.00
17128;DHT22;8679;50.842;4.322;2022-07-06T11:23:43;23.10;1.00
17128;DHT22;8679;50.842;4.322;2022-07-06T11:26:10;22.90;1.00
17128;DHT22;8679;50.842;4.322;2022-07-06T11:28:37;22.50;1.00
17128;DHT22;8679;50.842;4.322;2022-07-06T11:31:03;22.00;1.00
17128;DHT22;8679;50.842;4.322;2022-07-06T11:33:32;21.80;1.00
17128;DHT22;8679;50.842;4.322;2022-07-06T11:36:18;21.90;1.00
17128;DHT22;8679;50.842;4.322;2022-07-06T11:38:46;22.00;1.00
17128;DHT22;8679;50.842;4.322;2022-07-06T11:41:12;22.10;1.00
17128;DHT22;8679;50.842;4.322;2022-07-06T11:43:41;22.30;1.00
17128;DHT22;8679;50.842;4.322;2022-07-06T11:46:37;22.50;1.00
17128;DHT22;8679;50.842;4.322;2022-07-06T11:49:08;22.80;1.00
17128;DHT22;8679;50.842;4.322;2022-07-06T11:51:36;22.80;1.00
17128;DHT22;8679;50.842;4.322;2022-07-06T11:54:15;22.60;1.00
17128;DHT22;8679;50.842;4.322;2022-07-06T11:59:16;22.10;1.00
17128;DHT22;8679;50.842;4.322;2022-07-06T12:01:42;22.30;1.00
17128;DHT22;8679;50.842;4.322;2022-07-06T12:04:10;22.80;1.00
17128;DHT22;8679;50.842;4.322;2022-07-06T12:06:36;22.60;1.00
17128;DHT22;8679;50.842;4.322;2022-07-06T12:09:02;22.60;1.00
17128;DHT22;8679;50.842;4.322;2022-07-06T12:11:34;22.80;1.00
17128;DHT22;8679;50.842;4.322;2022-07-06T12:14:16;22.60;1.00
17128;DHT22;8679;50.842;4.322;2022-07-06T12:16:43;22.60;1.00
17128;DHT22;8679;50.842;4.322;2022-07-06T12:19:08;22.40;1.00
17128;DHT22;8679;50.842;4.322;2022-07-06T12:21:45;22.40;1.00
17128;DHT22;8679;50.842;4.322;2022-07-06T12:24:18;22.40;1.00
17128;DHT22;8679;50.842;4.322;2022-07-06T12:26:44;22.30;1.00
17128;DHT22;8679;50.842;4.322;2022-07-06T12:29:12;22.50;1.00
17128;DHT22;8679;50.842;4.322;2022-07-06T12:31:56;22.40;1.00
17128;DHT22;8679;50.842;4.322;2022-07-06T12:34:23;22.10;1.00
17128;DHT22;8679;50.842;4.322;2022-07-06T12:36:56;22.00;1.00
17128;DHT22;8679;50.842;4.322;2022-07-06T12:39:23;22.10;1.00
17128;DHT22;8679;50.842;4.322;2022-07-06T12:42:00;22.50;1.00
17128;DHT22;8679;50.842;4.322;2022-07-06T12:44:26;22.60;1.00
17128;DHT22;8679;50.842;4.322;2022-07-06T12:47:06;23.00;1.00
17128;DHT22;8679;50.842;4.322;2022-07-06T12:49:33;23.40;1.00
17128;DHT22;8679;50.842;4.322;2022-07-06T12:52:13;23.50;1.00
17128;DHT22;8679;50.842;4.322;2022-07-06T12:54:42;23.60;1.00
17128;DHT22;8679;50.842;4.322;2022-07-06T12:57:41;23.70;1.00
17128;DHT22;8679;50.842;4.322;2022-07-06T12:59:55;23.90;1.00
17128;DHT22;8679;50.842;4.322;2022-07-06T13:02:40;24.20;1.00
17128;DHT22;8679;50.842;4.322;2022-07-06T13:05:10;24.40;1.00
17128;DHT22;8679;50.842;4.322;2022-07-06T13:07:39;24.20;1.00
17128;DHT22;8679;50.842;4.322;2022-07-06T13:10:10;24.30;1.00
17128;DHT22;8679;50.842;4.322;2022-07-06T13:12:37;24.50;1.00
17128;DHT22;8679;50.842;4.322;2022-07-06T13:15:04;24.40;1.00
17128;DHT22;8679;50.842;4.322;2022-07-06T13:17:29;24.40;1.00
17128;DHT22;8679;50.842;4.322;2022-07-06T13:19:55;24.20;1.00
17128;DHT22;8679;50.842;4.322;2022-07-06T13:22:21;24.10;1.00
17128;DHT22;8679;50.842;4.322;2022-07-06T13:24:46;23.90;1.00
17128;DHT22;8679;50.842;4.322;2022-07-06T13:27:12;24.30;1.00
17128;DHT22;8679;50.842;4.322;2022-07-06T13:29:38;24.20;1.00
17128;DHT22;8679;50.842;4.322;2022-07-06T13:32:05;24.00;1.00
17128;DHT22;8679;50.842;4.322;2022-07-06T13:34:31;24.00;1.00
17128;DHT22;8679;50.842;4.322;2022-07-06T13:36:56;24.30;1.00
17128;DHT22;8679;50.842;4.322;2022-07-06T13:39:22;24.40;1.00
17128;DHT22;8679;50.842;4.322;2022-07-06T13:41:48;24.80;1.00
17128;DHT22;8679;50.842;4.322;2022-07-06T13:44:14;25.30;1.00
17128;DHT22;8679;50.842;4.322;2022-07-06T13:46:40;25.40;1.00
17128;DHT22;8679;50.842;4.322;2022-07-06T13:49:06;25.00;1.00
17128;DHT22;8679;50.842;4.322;2022-07-06T13:51:32;24.40;1.00
17128;DHT22;8679;50.842;4.322;2022-07-06T13:54:01;24.50;1.00
17128;DHT22;8679;50.842;4.322;2022-07-06T13:56:27;25.30;1.00
17128;DHT22;8679;50.842;4.322;2022-07-06T13:58:54;25.30;1.00
17128;DHT22;8679;50.842;4.322;2022-07-06T14:01:19;24.70;1.00
17128;DHT22;8679;50.842;4.322;2022-07-06T14:03:45;24.40;1.00
17128;DHT22;8679;50.842;4.322;2022-07-06T14:06:11;24.40;1.00
17128;DHT22;8679;50.842;4.322;2022-07-06T14:08:38;24.50;1.00
17128;DHT22;8679;50.842;4.322;2022-07-06T14:11:05;24.60;99.90
17128;DHT22;8679;50.842;4.322;2022-07-06T14:13:31;24.60;99.90
17128;DHT22;8679;50.842;4.322;2022-07-06T14:15:57;24.60;1.00
17128;DHT22;8679;50.842;4.322;2022-07-06T14:18:23;24.60;99.90
17128;DHT22;8679;50.842;4.322;2022-07-06T14:20:49;24.40;1.00
17128;DHT22;8679;50.842;4.322;2022-07-06T14:23:16;24.30;1.00
17128;DHT22;8679;50.842;4.322;2022-07-06T14:25:42;24.20;1.00
17128;DHT22;8679;50.842;4.322;2022-07-06T14:28:09;24.10;1.00
17128;DHT22;8679;50.842;4.322;2022-07-06T14:30:35;24.60;1.00
17128;DHT22;8679;50.842;4.322;2022-07-06T14:33:03;24.80;1.00
17128;DHT22;8679;50.842;4.322;2022-07-06T14:35:36;25.00;1.00
17128;DHT22;8679;50.842;4.322;2022-07-06T14:38:03;24.50;1.00
17128;DHT22;8679;50.842;4.322;2022-07-06T14:40:29;24.60;1.00
17128;DHT22;8679;50.842;4.322;2022-07-06T14:42:55;25.90;1.00
17128;DHT22;8679;50.842;4.322;2022-07-06T14:45:20;27.50;1.00
17128;DHT22;8679;50.842;4.322;2022-07-06T14:47:46;28.10;1.00
17128;DHT22;8679;50.842;4.322;2022-07-06T14:50:11;27.40;1.00
17128;DHT22;8679;50.842;4.322;2022-07-06T14:52:37;27.10;1.00
17128;DHT22;8679;50.842;4.322;2022-07-06T14:55:03;26.70;1.00
17128;DHT22;8679;50.842;4.322;2022-07-06T14:57:29;26.60;1.00
17128;DHT22;8679;50.842;4.322;2022-07-06T14:59:54;27.00;99.90
17128;DHT22;8679;50.842;4.322;2022-07-06T15:02:20;27.50;99.90
17128;DHT22;8679;50.842;4.322;2022-07-06T15:04:46;27.50;99.90
17128;DHT22;8679;50.842;4.322;2022-07-06T15:07:11;27.60;99.90
17128;DHT22;8679;50.842;4.322;2022-07-06T15:09:37;29.10;99.90
17128;DHT22;8679;50.842;4.322;2022-07-06T15:12:03;30.60;1.00
17128;DHT22;8679;50.842;4.322;2022-07-06T15:14:29;31.40;1.00
17128;DHT22;8679;50.842;4.322;2022-07-06T15:16:55;30.90;1.00
17128;DHT22;8679;50.842;4.322;2022-07-06T15:19:21;29.00;1.00
17128;DHT22;8679;50.842;4.322;2022-07-06T15:21:47;27.80;1.00
17128;DHT22;8679;50.842;4.322;2022-07-06T15:24:12;27.10;1.00
17128;DHT22;8679;50.842;4.322;2022-07-06T15:26:41;26.30;99.90
17128;DHT22;8679;50.842;4.322;2022-07-06T15:29:10;25.40;99.90
17128;DHT22;8679;50.842;4.322;2022-07-06T15:31:36;24.90;1.00
17128;DHT22;8679;50.842;4.322;2022-07-06T15:34:02;24.50;99.90
17128;DHT22;8679;50.842;4.322;2022-07-06T15:36:27;24.20;99.90
17128;DHT22;8679;50.842;4.322;2022-07-06T15:38:53;24.00;99.90
17128;DHT22;8679;50.842;4.322;2022-07-06T15:41:19;24.00;99.90
17128;DHT22;8679;50.842;4.322;2022-07-06T15:43:44;24.20;1.00
17128;DHT22;8679;50.842;4.322;2022-07-06T15:46:11;24.20;1.00
17128;DHT22;8679;50.842;4.322;2022-07-06T15:48:37;24.30;1.00
17128;DHT22;8679;50.842;4.322;2022-07-06T15:51:03;24.30;1.00
17128;DHT22;8679;50.842;4.322;2022-07-06T15:53:29;24.60;1.00
17128;DHT22;8679;50.842;4.322;2022-07-06T15:55:56;24.60;1.00
17128;DHT22;8679;50.842;4.322;2022-07-06T15:58:22;25.00;1.00
17128;DHT22;8679;50.842;4.322;2022-07-06T16:00:48;25.30;1.00
17128;DHT22;8679;50.842;4.322;2022-07-06T16:03:14;25.50;1.00
17128;DHT22;8679;50.842;4.322;2022-07-06T16:05:39;26.30;1.00